sensor_id;sensor_type;location;lat;lon;timestamp;temperature;humidity
2729;DHT22;1372;47.956;7.830;2022-12-07T00:01:47;4.50;99.90
2729;DHT22;1372;47.956;7.830;2022-12-07T00:04:17;4.40;99.90
2729;DHT22;1372;47.956;7.830;2022-12-07T00:06:51;4.50;99.90
2729;DHT22;1372;47.956;7.830;2022-12-07T00:09:21;4.50;99.90
2729;DHT22;1372;47.956;7.830;2022-12-07T00:11:51;4.50;99.90
2729;DHT22;1372;47.956;7.830;2022-12-07T00:14:20;4.50;99.90
2729;DHT22;1372;47.956;7.830;2022-12-07T00:16:50;4.50;99.90
2729;DHT22;1372;47.956;7.830;2022-12-07T00:19:19;4.60;99.90
2729;DHT22;1372;47.956;7.830;2022-12-07T00:21:48;4.60;99.90
2729;DHT22;1372;47.956;7.830;2022-12-07T00:24:16;4.60;99.90
2729;DHT22;1372;47.956;7.830;2022-12-07T00:26:49;4.50;99.90
2729;DHT22;1372;47.956;7.830;2022-12-07T00:29:42;4.50;99.90
2729;DHT22;1372;47.956;7.830;2022-12-07T00:32:11;4.50;99.90
2729;DHT22;1372;47.956;7.830;2022-12-07T00:34:39;4.40;99.90
2729;DHT22;1372;47.956;7.830;2022-12-07T00:37:10;4.30;99.90
2729;DHT22;1372;47.956;7.830;2022-12-07T00:39:40;4.40;99.90
2729;DHT22;1372;47.956;7.830;2022-12-07T00:42:10;4.40;99.90
2729;DHT22;1372;47.956;7.830;2022-12-07T00:44:39;4.50;99.90
2729;DHT22;1372;47.956;7.830;2022-12-07T00:47:07;4.40;99.90
2729;DHT22;1372;47.956;7.830;2022-12-07T00:49:38;4.40;99.90
2729;DHT22;1372;47.956;7.830;2022-12-07T00:52:06;4.40;99.90
2729;DHT22;1372;47.956;7.830;2022-12-07T00:54:35;4.40;99.90
2729;DHT22;1372;47.956;7.830;2022-12-07T00:57:03;4.40;99.90
2729;DHT22;1372;47.956;7.830;2022-12-07T00:59:33;4.30;99.90
2729;DHT22;1372;47.956;7.830;2022-12-07T01:02:02;4.30;99.90
2729;DHT22;1372;47.956;7.830;2022-12-07T01:04:33;4.30;99.90
2729;DHT22;1372;47.956;7.830;2022-12-07T01:07:02;4.40;99.90
2729;DHT22;1372;47.956;7.830;2022-12-07T01:09:33;4.40;99.90
2729;DHT22;1372;47.956;7.830;2022-12-07T01:12:03;4.40;99.90
2729;DHT22;1372;47.956;7.830;2022-12-07T01:14:33;4.40;99.90
2729;DHT22;1372;47.956;7.830;2022-12-07T01:17:04;4.40;99.90
2729;DHT22;1372;47.956;7.830;2022-12-07T01:19:32;4.40;99.90
2729;DHT22;1372;47.956;7.830;2022-12-07T01:22:01;4.50;99.90
2729;DHT22;1372;47.956;7.830;2022-12-07T01:24:32;4.50;99.90
2729;DHT22;1372;47.956;7.830;2022-12-07T01:27:00;4.40;99.90
2729;DHT22;1372;47.956;7.830;2022-12-07T01:29:29;4.40;99.90
2729;DHT22;1372;47.956;7.830;2022-12-07T01:31:59;4.40;99.90
2729;DHT22;1372;47.956;7.830;2022-12-07T01:34:27;4.40;99.90
2729;DHT22;1372;47.956;7.830;2022-12-07T01:36:57;4.30;99.90
2729;DHT22;1372;47.956;7.830;2022-12-07T01:39:25;4.40;99.90
2729;DHT22;1372;47.956;7.830;2022-12-07T01:41:54;4.30;99.90
2729;DHT22;1372;47.956;7.830;2022-12-07T01:44:27;4.30;99.90
2729;DHT22;1372;47.956;7.830;2022-12-07T01:46:59;4.30;99.90
2729;DHT22;1372;47.956;7.830;2022-12-07T01:49:31;4.40;99.90
2729;DHT22;1372;47.956;7.830;2022-12-07T01:52:10;4.40;99.90
2729;DHT22;1372;47.956;7.830;2022-12-07T01:54:42;4.40;99.90
2729;DHT22;1372;47.956;7.830;2022-12-07T01:57:12;4.50;99.90
2729;DHT22;1372;47.956;7.830;2022-12-07T01:59:42;4.60;99.90
2729;DHT22;1372;47.956;7.830;2022-12-07T02:02:19;4.60;99.90
2729;DHT22;1372;47.956;7.830;2022-12-07T02:04:49;4.60;99.90
2729;DHT22;1372;47.956;7.830;2022-12-07T02:07:20;4.70;99.90
2729;DHT22;1372;47.956;7.830;2022-12-07T02:09:48;4.70;99.90
2729;DHT22;1372;47.956;7.830;2022-12-07T02:12:17;4.70;99.90
2729;DHT22;1372;47.956;7.830;2022-12-07T02:14:46;4.70;99.90
2729;DHT22;1372;47.956;7.830;2022-12-07T02:17:20;4.60;99.90
2729;DHT22;1372;47.956;7.830;2022-12-07T02:20:13;4.60;99.90
2729;DHT22;1372;47.956;7.830;2022-12-07T02:23:20;4.60;99.90
2729;DHT22;1372;47.956;7.830;2022-12-07T02:26:15;4.60;99.90
2729;DHT22;1372;47.956;7.830;2022-12-07T02:29:10;4.60;99.90
2729;DHT22;1372;47.956;7.830;2022-12-07T02:31:56;4.70;99.90
2729;DHT22;1372;47.956;7.830;2022-12-07T02:34:34;4.60;99.90
2729;DHT22;1372;47.956;7.830;2022-12-07T02:37:17;4.60;99.90
2729;DHT22;1372;47.956;7.830;2022-12-07T02:39:54;4.50;99.90
2729;DHT22;1372;47.956;7.830;2022-12-07T02:42:30;4.70;99.90
2729;DHT22;1372;47.956;7.830;2022-12-07T02:45:05;4.70;99.90
2729;DHT22;1372;47.956;7.830;2022-12-07T02:47:37;4.70;99.90
2729;DHT22;1372;47.956;7.830;2022-12-07T02:50:09;4.60;99.90
2729;DHT22;1372;47.956;7.830;2022-12-07T02:52:38;4.50;99.90
2729;DHT22;1372;47.956;7.830;2022-12-07T02:55:08;4.50;99.90
2729;DHT22;1372;47.956;7.830;2022-12-07T02:57:46;4.50;99.90
2729;DHT22;1372;47.956;7.830;2022-12-07T03:00:23;4.50;99.90
2729;DHT22;1372;47.956;7.830;2022-12-07T03:02:55;4.40;99.90
2729;DHT22;1372;47.956;7.830;2022-12-07T03:05:51;4.40;99.90
2729;DHT22;1372;47.956;7.830;2022-12-07T03:08:34;4.50;99.90
2729;DHT22;1372;47.956;7.830;2022-12-07T03:11:09;4.50;99.90
2729;DHT22;1372;47.956;7.830;2022-12-07T03:13:45;4.30;99.90
2729;DHT22;1372;47.956;7.830;2022-12-07T03:16:21;4.30;99.90
2729;DHT22;1372;47.956;7.830;2022-12-07T03:18:55;4.30;99.90
2729;DHT22;1372;47.956;7.830;2022-12-07T03:21:26;4.40;99.90
2729;DHT22;1372;47.956;7.830;2022-12-07T03:24:00;4.20;99.90
2729;DHT22;1372;47.956;7.830;2022-12-07T03:26:35;4.20;99.90
2729;DHT22;1372;47.956;7.830;2022-12-07T03:29:09;4.20;99.90
2729;DHT22;1372;47.956;7.830;2022-12-07T03:31:57;4.20;99.90
2729;DHT22;1372;47.956;7.830;2022-12-07T03:34:31;4.20;99.90
2729;DHT22;1372;47.956;7.830;2022-12-07T03:37:05;4.30;99.90
2729;DHT22;1372;47.956;7.830;2022-12-07T03:39:41;4.30;99.90
2729;DHT22;1372;47.956;7.830;2022-12-07T03:42:14;4.20;99.90
2729;DHT22;1372;47.956;7.830;2022-12-07T03:44:43;4.20;99.90
2729;DHT22;1372;47.956;7.830;2022-12-07T03:47:17;4.30;99.90
2729;DHT22;1372;47.956;7.830;2022-12-07T03:49:51;4.30;99.90
2729;DHT22;1372;47.956;7.830;2022-12-07T03:52:24;4.20;99.90
2729;DHT22;1372;47.956;7.830;2022-12-07T03:54:58;4.20;99.90
2729;DHT22;1372;47.956;7.830;2022-12-07T03:57:30;4.20;99.90
2729;DHT22;1372;47.956;7.830;2022-12-07T04:00:02;4.20;99.90
2729;DHT22;1372;47.956;7.830;2022-12-07T04:02:40;4.10;99.90
2729;DHT22;1372;47.956;7.830;2022-12-07T04:05:10;4.10;99.90
2729;DHT22;1372;47.956;7.830;2022-12-07T04:07:40;4.00;99.90
2729;DHT22;1372;47.956;7.830;2022-12-07T04:10:10;4.00;99.90
2729;DHT22;1372;47.956;7.830;2022-12-07T04:12:39;4.00;99.90
2729;DHT22;1372;47.956;7.830;2022-12-07T04:15:09;4.00;99.90
2729;DHT22;1372;47.956;7.830;2022-12-07T04:17:39;4.00;99.90
2729;DHT22;1372;47.956;7.830;2022-12-07T04:20:09;4.00;99.90
2729;DHT22;1372;47.956;7.830;2022-12-07T04:22:38;4.10;99.90
2729;DHT22;1372;47.956;7.830;2022-12-07T04:25:07;4.10;99.90
2729;DHT22;1372;47.956;7.830;2022-12-07T04:27:36;4.10;99.90
2729;DHT22;1372;47.956;7.830;2022-12-07T04:30:06;4.00;99.90
2729;DHT22;1372;47.956;7.830;2022-12-07T04:32:35;4.00;99.90
2729;DHT22;1372;47.956;7.830;2022-12-07T04:35:07;4.00;99.90
2729;DHT22;1372;47.956;7.830;2022-12-07T04:37:36;4.10;99.90
2729;DHT22;1372;47.956;7.830;2022-12-07T04:40:07;4.00;99.90
2729;DHT22;1372;47.956;7.830;2022-12-07T04:42:38;4.00;99.90
2729;DHT22;1372;47.956;7.830;2022-12-07T04:45:08;4.10;99.90
2729;DHT22;1372;47.956;7.830;2022-12-07T04:47:46;4.00;99.90
2729;DHT22;1372;47.956;7.830;2022-12-07T04:50:16;3.90;99.90
2729;DHT22;1372;47.956;7.830;2022-12-07T04:52:45;4.00;99.90
2729;DHT22;1372;47.956;7.830;2022-12-07T04:55:13;4.00;99.90
2729;DHT22;1372;47.956;7.830;2022-12-07T04:57:42;3.90;99.90
2729;DHT22;1372;47.956;7.830;2022-12-07T05:00:11;3.80;99.90
2729;DHT22;1372;47.956;7.830;2022-12-07T05:03:00;3.80;99.90
2729;DHT22;1372;47.956;7.830;2022-12-07T05:05:31;3.80;99.90
2729;DHT22;1372;47.956;7.830;2022-12-07T05:08:04;3.90;99.90
2729;DHT22;1372;47.956;7.830;2022-12-07T05:10:40;3.90;99.90
2729;DHT22;1372;47.956;7.830;2022-12-07T05:13:08;3.90;99.90
2729;DHT22;1372;47.956;7.830;2022-12-07T05:15:37;3.90;99.90
2729;DHT22;1372;47.956;7.830;2022-12-07T05:18:10;3.80;99.90
2729;DHT22;1372;47.956;7.830;2022-12-07T05:20:41;3.70;99.90
2729;DHT22;1372;47.956;7.830;2022-12-07T05:23:10;3.70;99.90
2729;DHT22;1372;47.956;7.830;2022-12-07T05:25:39;3.70;99.90
2729;DHT22;1372;47.956;7.830;2022-12-07T05:28:08;3.70;99.90
2729;DHT22;1372;47.956;7.830;2022-12-07T05:30:37;3.70;99.90
2729;DHT22;1372;47.956;7.830;2022-12-07T05:33:05;3.70;99.90
2729;DHT22;1372;47.956;7.830;2022-12-07T05:35:34;3.60;99.90
2729;DHT22;1372;47.956;7.830;2022-12-07T05:38:06;3.60;99.90
2729;DHT22;1372;47.956;7.830;2022-12-07T05:40:37;3.60;99.90
2729;DHT22;1372;47.956;7.830;2022-12-07T05:43:05;3.70;99.90
2729;DHT22;1372;47.956;7.830;2022-12-07T05:45:35;3.70;99.90
2729;DHT22;1372;47.956;7.830;2022-12-07T05:48:05;3.70;99.90
2729;DHT22;1372;47.956;7.830;2022-12-07T05:50:34;3.70;99.90
2729;DHT22;1372;47.956;7.830;2022-12-07T05:53:02;3.60;99.90
2729;DHT22;1372;47.956;7.830;2022-12-07T05:55:33;3.60;99.90
2729;DHT22;1372;47.956;7.830;2022-12-07T05:58:14;3.60;99.90
2729;DHT22;1372;47.956;7.830;2022-12-07T06:01:00;3.50;99.90
2729;DHT22;1372;47.956;7.830;2022-12-07T06:03:28;3.50;99.90
2729;DHT22;1372;47.956;7.830;2022-12-07T06:05:57;3.50;99.90
2729;DHT22;1372;47.956;7.830;2022-12-07T06:08:26;3.50;99.90
2729;DHT22;1372;47.956;7.830;2022-12-07T06:11:03;3.50;99.90
2729;DHT22;1372;47.956;7.830;2022-12-07T06:14:01;3.40;99.90
2729;DHT22;1372;47.956;7.830;2022-12-07T06:16:29;3.30;99.90
2729;DHT22;1372;47.956;7.830;2022-12-07T06:18:58;3.20;99.90
2729;DHT22;1372;47.956;7.830;2022-12-07T06:21:26;3.20;99.90
2729;DHT22;1372;47.956;7.830;2022-12-07T06:23:55;3.20;99.90
2729;DHT22;1372;47.956;7.830;2022-12-07T06:26:26;3.20;99.90
2729;DHT22;1372;47.956;7.830;2022-12-07T06:28:54;3.20;99.90
2729;DHT22;1372;47.956;7.830;2022-12-07T06:31:23;2.90;99.90
2729;DHT22;1372;47.956;7.830;2022-12-07T06:33:57;2.80;99.90
2729;DHT22;1372;47.956;7.830;2022-12-07T06:36:26;2.70;99.90
2729;DHT22;1372;47.956;7.830;2022-12-07T06:38:55;2.50;99.90
2729;DHT22;1372;47.956;7.830;2022-12-07T06:41:26;2.50;99.90
2729;DHT22;1372;47.956;7.830;2022-12-07T06:43:55;2.60;99.90
2729;DHT22;1372;47.956;7.830;2022-12-07T06:46:24;2.60;99.90
2729;DHT22;1372;47.956;7.830;2022-12-07T06:48:54;2.50;99.90
2729;DHT22;1372;47.956;7.830;2022-12-07T06:51:22;2.50;99.90
2729;DHT22;1372;47.956;7.830;2022-12-07T06:53:51;2.40;99.90
2729;DHT22;1372;47.956;7.830;2022-12-07T06:56:25;2.40;99.90
2729;DHT22;1372;47.956;7.830;2022-12-07T06:58:54;2.30;99.90
2729;DHT22;1372;47.956;7.830;2022-12-07T07:01:23;2.20;99.90
2729;DHT22;1372;47.956;7.830;2022-12-07T07:04:02;2.20;99.90
2729;DHT22;1372;47.956;7.830;2022-12-07T07:06:31;2.30;99.90
2729;DHT22;1372;47.956;7.830;2022-12-07T07:09:00;2.30;99.90
2729;DHT22;1372;47.956;7.830;2022-12-07T07:11:32;2.30;99.90
2729;DHT22;1372;47.956;7.830;2022-12-07T07:14:01;2.30;99.90
2729;DHT22;1372;47.956;7.830;2022-12-07T07:16:30;2.30;99.90
2729;DHT22;1372;47.956;7.830;2022-12-07T07:18:59;2.30;99.90
2729;DHT22;1372;47.956;7.830;2022-12-07T07:21:27;2.20;99.90
2729;DHT22;1372;47.956;7.830;2022-12-07T07:23:57;2.20;99.90
2729;DHT22;1372;47.956;7.830;2022-12-07T07:26:25;2.20;99.90
2729;DHT22;1372;47.956;7.830;2022-12-07T07:28:57;2.30;99.90
2729;DHT22;1372;47.956;7.830;2022-12-07T07:31:30;2.30;99.90
2729;DHT22;1372;47.956;7.830;2022-12-07T07:33:58;2.20;99.90
2729;DHT22;1372;47.956;7.830;2022-12-07T07:36:27;2.10;99.90
2729;DHT22;1372;47.956;7.830;2022-12-07T07:38:58;2.20;99.90
2729;DHT22;1372;47.956;7.830;2022-12-07T07:41:26;2.20;99.90
2729;DHT22;1372;47.956;7.830;2022-12-07T07:43:56;2.30;99.90
2729;DHT22;1372;47.956;7.830;2022-12-07T07:46:25;2.30;99.90
2729;DHT22;1372;47.956;7.830;2022-12-07T07:48:54;2.20;99.90
2729;DHT22;1372;47.956;7.830;2022-12-07T07:51:23;2.00;99.90
2729;DHT22;1372;47.956;7.830;2022-12-07T07:53:52;2.10;99.90
2729;DHT22;1372;47.956;7.830;2022-12-07T07:56:20;2.10;99.90
2729;DHT22;1372;47.956;7.830;2022-12-07T07:58:51;2.10;99.90
2729;DHT22;1372;47.956;7.830;2022-12-07T08:01:22;1.90;99.90
2729;DHT22;1372;47.956;7.830;2022-12-07T08:03:51;2.00;99.90
2729;DHT22;1372;47.956;7.830;2022-12-07T08:06:22;2.00;99.90
2729;DHT22;1372;47.956;7.830;2022-12-07T08:08:56;1.90;99.90
2729;DHT22;1372;47.956;7.830;2022-12-07T08:11:26;1.90;99.90
2729;DHT22;1372;47.956;7.830;2022-12-07T08:13:54;1.90;99.90
2729;DHT22;1372;47.956;7.830;2022-12-07T08:16:24;1.80;99.90
2729;DHT22;1372;47.956;7.830;2022-12-07T08:18:55;1.80;99.90
2729;DHT22;1372;47.956;7.830;2022-12-07T08:21:24;1.70;99.90
2729;DHT22;1372;47.956;7.830;2022-12-07T08:23:53;1.70;99.90
2729;DHT22;1372;47.956;7.830;2022-12-07T08:26:21;1.80;99.90
2729;DHT22;1372;47.956;7.830;2022-12-07T08:28:50;1.70;99.90
2729;DHT22;1372;47.956;7.830;2022-12-07T08:31:18;1.80;99.90
2729;DHT22;1372;47.956;7.830;2022-12-07T08:33:49;1.80;99.90
2729;DHT22;1372;47.956;7.830;2022-12-07T08:36:18;1.90;99.90
2729;DHT22;1372;47.956;7.830;2022-12-07T08:38:49;1.90;99.90
2729;DHT22;1372;47.956;7.830;2022-12-07T08:41:40;1.90;99.90
2729;DHT22;1372;47.956;7.830;2022-12-07T08:44:16;1.90;99.90
2729;DHT22;1372;47.956;7.830;2022-12-07T08:46:46;2.00;99.90
2729;DHT22;1372;47.956;7.830;2022-12-07T08:49:23;2.00;99.90
2729;DHT22;1372;47.956;7.830;2022-12-07T08:51:55;2.10;99.90
2729;DHT22;1372;47.956;7.830;2022-12-07T08:54:24;2.20;99.90
2729;DHT22;1372;47.956;7.830;2022-12-07T08:56:53;2.40;99.90
2729;DHT22;1372;47.956;7.830;2022-12-07T08:59:51;2.50;99.90
2729;DHT22;1372;47.956;7.830;2022-12-07T09:02:20;2.70;99.90
2729;DHT22;1372;47.956;7.830;2022-12-07T09:04:49;2.80;99.90
2729;DHT22;1372;47.956;7.830;2022-12-07T09:07:18;2.90;99.90
2729;DHT22;1372;47.956;7.830;2022-12-07T09:09:50;3.00;99.90
2729;DHT22;1372;47.956;7.830;2022-12-07T09:12:30;3.00;99.90
2729;DHT22;1372;47.956;7.830;2022-12-07T09:15:15;3.00;99.90
2729;DHT22;1372;47.956;7.830;2022-12-07T09:17:58;3.10;99.90
2729;DHT22;1372;47.956;7.830;2022-12-07T09:20:28;3.10;99.90
2729;DHT22;1372;47.956;7.830;2022-12-07T09:22:57;3.10;99.90
2729;DHT22;1372;47.956;7.830;2022-12-07T09:25:26;3.20;99.90
2729;DHT22;1372;47.956;7.830;2022-12-07T09:27:56;3.20;99.90
2729;DHT22;1372;47.956;7.830;2022-12-07T09:30:26;3.20;99.90
2729;DHT22;1372;47.956;7.830;2022-12-07T09:32:56;3.20;99.90
2729;DHT22;1372;47.956;7.830;2022-12-07T09:35:30;3.20;99.90
2729;DHT22;1372;47.956;7.830;2022-12-07T09:38:00;3.30;99.90
2729;DHT22;1372;47.956;7.830;2022-12-07T09:40:29;3.30;99.90
2729;DHT22;1372;47.956;7.830;2022-12-07T09:42:58;3.40;99.90
2729;DHT22;1372;47.956;7.830;2022-12-07T09:45:30;3.30;99.90
2729;DHT22;1372;47.956;7.830;2022-12-07T09:48:05;3.30;99.90
2729;DHT22;1372;47.956;7.830;2022-12-07T09:50:39;3.30;99.90
2729;DHT22;1372;47.956;7.830;2022-12-07T09:53:13;3.20;99.90
2729;DHT22;1372;47.956;7.830;2022-12-07T09:55:44;3.30;99.90
2729;DHT22;1372;47.956;7.830;2022-12-07T09:58:23;3.40;99.90
2729;DHT22;1372;47.956;7.830;2022-12-07T10:00:55;3.40;99.90
2729;DHT22;1372;47.956;7.830;2022-12-07T10:03:26;3.50;99.90
2729;DHT22;1372;47.956;7.830;2022-12-07T10:05:57;3.50;99.90
2729;DHT22;1372;47.956;7.830;2022-12-07T10:08:26;3.50;99.90
2729;DHT22;1372;47.956;7.830;2022-12-07T10:10:56;3.60;99.90
2729;DHT22;1372;47.956;7.830;2022-12-07T10:13:39;3.60;99.90
2729;DHT22;1372;47.956;7.830;2022-12-07T10:16:34;3.60;99.90
2729;DHT22;1372;47.956;7.830;2022-12-07T10:19:19;3.60;99.90
2729;DHT22;1372;47.956;7.830;2022-12-07T10:22:10;3.60;99.90
2729;DHT22;1372;47.956;7.830;2022-12-07T10:24:41;3.70;99.90
2729;DHT22;1372;47.956;7.830;2022-12-07T10:27:19;3.70;99.90
2729;DHT22;1372;47.956;7.830;2022-12-07T10:29:51;3.80;99.90
2729;DHT22;1372;47.956;7.830;2022-12-07T10:32:32;3.90;99.90
2729;DHT22;1372;47.956;7.830;2022-12-07T10:35:24;4.10;99.90
2729;DHT22;1372;47.956;7.830;2022-12-07T10:37:56;4.10;99.90
2729;DHT22;1372;47.956;7.830;2022-12-07T10:40:29;4.30;99.90
2729;DHT22;1372;47.956;7.830;2022-12-07T10:43:13;4.40;99.90
2729;DHT22;1372;47.956;7.830;2022-12-07T10:46:09;4.50;99.90
2729;DHT22;1372;47.956;7.830;2022-12-07T10:48:59;4.50;99.90
2729;DHT22;1372;47.956;7.830;2022-12-07T10:51:43;4.60;99.90
2729;DHT22;1372;47.956;7.830;2022-12-07T10:54:23;4.70;99.90
2729;DHT22;1372;47.956;7.830;2022-12-07T10:57:02;4.80;99.90
2729;DHT22;1372;47.956;7.830;2022-12-07T10:59:51;4.90;99.90
2729;DHT22;1372;47.956;7.830;2022-12-07T11:02:45;4.90;99.90
2729;DHT22;1372;47.956;7.830;2022-12-07T11:05:28;5.00;99.90
2729;DHT22;1372;47.956;7.830;2022-12-07T11:08:04;5.00;99.90
2729;DHT22;1372;47.956;7.830;2022-12-07T11:10:45;5.10;99.90
2729;DHT22;1372;47.956;7.830;2022-12-07T11:13:25;5.10;99.90
2729;DHT22;1372;47.956;7.830;2022-12-07T11:16:13;5.20;99.90
2729;DHT22;1372;47.956;7.830;2022-12-07T11:19:11;5.20;99.90
2729;DHT22;1372;47.956;7.830;2022-12-07T11:21:57;5.30;99.90
2729;DHT22;1372;47.956;7.830;2022-12-07T11:24:37;5.40;99.90
2729;DHT22;1372;47.956;7.830;2022-12-07T11:27:19;5.40;99.90
2729;DHT22;1372;47.956;7.830;2022-12-07T11:30:10;5.50;99.90
2729;DHT22;1372;47.956;7.830;2022-12-07T11:32:51;5.50;99.90
2729;DHT22;1372;47.956;7.830;2022-12-07T11:35:36;5.50;99.90
2729;DHT22;1372;47.956;7.830;2022-12-07T11:38:13;5.50;99.90
2729;DHT22;1372;47.956;7.830;2022-12-07T11:40:46;5.60;99.90
2729;DHT22;1372;47.956;7.830;2022-12-07T11:43:22;5.70;99.90
2729;DHT22;1372;47.956;7.830;2022-12-07T11:45:59;5.70;99.90
2729;DHT22;1372;47.956;7.830;2022-12-07T11:48:34;5.90;99.90
2729;DHT22;1372;47.956;7.830;2022-12-07T11:51:07;5.90;99.90
2729;DHT22;1372;47.956;7.830;2022-12-07T11:53:42;6.00;99.90
2729;DHT22;1372;47.956;7.830;2022-12-07T11:56:14;6.10;99.90
2729;DHT22;1372;47.956;7.830;2022-12-07T11:58:52;6.10;99.90
2729;DHT22;1372;47.956;7.830;2022-12-07T12:01:31;6.10;99.90
2729;DHT22;1372;47.956;7.830;2022-12-07T12:04:39;6.10;99.90
2729;DHT22;1372;47.956;7.830;2022-12-07T12:07:26;6.20;99.90
2729;DHT22;1372;47.956;7.830;2022-12-07T12:10:22;6.20;99.90
2729;DHT22;1372;47.956;7.830;2022-12-07T12:13:12;6.30;99.90
2729;DHT22;1372;47.956;7.830;2022-12-07T12:19:21;6.40;99.90
2729;DHT22;1372;47.956;7.830;2022-12-07T12:21:56;6.40;99.90
2729;DHT22;1372;47.956;7.830;2022-12-07T12:24:31;6.50;99.90
2729;DHT22;1372;47.956;7.830;2022-12-07T12:27:06;6.60;99.90
2729;DHT22;1372;47.956;7.830;2022-12-07T12:29:39;6.60;99.90
2729;DHT22;1372;47.956;7.830;2022-12-07T12:32:28;6.70;99.90
2729;DHT22;1372;47.956;7.830;2022-12-07T12:35:20;6.80;99.90
2729;DHT22;1372;47.956;7.830;2022-12-07T12:37:55;6.80;99.90
2729;DHT22;1372;47.956;7.830;2022-12-07T12:40:55;6.80;99.90
2729;DHT22;1372;47.956;7.830;2022-12-07T12:43:43;6.90;99.90
2729;DHT22;1372;47.956;7.830;2022-12-07T12:46:47;6.90;99.90
2729;DHT22;1372;47.956;7.830;2022-12-07T12:49:55;7.20;99.90
2729;DHT22;1372;47.956;7.830;2022-12-07T12:52:58;7.10;99.90
2729;DHT22;1372;47.956;7.830;2022-12-07T12:59:22;6.90;99.90
2729;DHT22;1372;47.956;7.830;2022-12-07T13:01:55;6.90;99.90
2729;DHT22;1372;47.956;7.830;2022-12-07T13:10:51;7.00;99.90
2729;DHT22;1372;47.956;7.830;2022-12-07T13:13:31;7.00;99.90
2729;DHT22;1372;47.956;7.830;2022-12-07T13:16:37;7.00;99.90
2729;DHT22;1372;47.956;7.830;2022-12-07T13:22:48;6.90;99.90
2729;DHT22;1372;47.956;7.830;2022-12-07T13:25:33;7.00;99.90
2729;DHT22;1372;47.956;7.830;2022-12-07T13:28:14;7.10;99.90
2729;DHT22;1372;47.956;7.830;2022-12-07T13:30:58;7.20;99.90
2729;DHT22;1372;47.956;7.830;2022-12-07T13:33:30;7.10;99.90
2729;DHT22;1372;47.956;7.830;2022-12-07T13:36:03;7.10;99.90
2729;DHT22;1372;47.956;7.830;2022-12-07T13:38:35;7.00;99.90
2729;DHT22;1372;47.956;7.830;2022-12-07T13:41:16;7.10;99.90
2729;DHT22;1372;47.956;7.830;2022-12-07T13:43:49;7.20;99.90
2729;DHT22;1372;47.956;7.830;2022-12-07T13:46:25;7.10;99.90
2729;DHT22;1372;47.956;7.830;2022-12-07T13:49:02;7.00;99.90
2729;DHT22;1372;47.956;7.830;2022-12-07T13:51:36;6.90;99.90
2729;DHT22;1372;47.956;7.830;2022-12-07T13:54:11;7.10;99.90
2729;DHT22;1372;47.956;7.830;2022-12-07T13:56:42;7.10;99.90
2729;DHT22;1372;47.956;7.830;2022-12-07T13:59:16;7.10;99.90
2729;DHT22;1372;47.956;7.830;2022-12-07T14:01:48;7.20;99.90
2729;DHT22;1372;47.956;7.830;2022-12-07T14:04:30;7.10;99.90
2729;DHT22;1372;47.956;7.830;2022-12-07T14:07:21;7.10;99.90
2729;DHT22;1372;47.956;7.830;2022-12-07T14:10:00;7.10;99.90
2729;DHT22;1372;47.956;7.830;2022-12-07T14:12:35;6.90;99.90
2729;DHT22;1372;47.956;7.830;2022-12-07T14:15:15;6.90;99.90
2729;DHT22;1372;47.956;7.830;2022-12-07T14:17:51;7.00;99.90
2729;DHT22;1372;47.956;7.830;2022-12-07T14:20:32;7.10;99.90
2729;DHT22;1372;47.956;7.830;2022-12-07T14:23:02;7.00;99.90
2729;DHT22;1372;47.956;7.830;2022-12-07T14:25:46;6.90;99.90
2729;DHT22;1372;47.956;7.830;2022-12-07T14:28:26;6.90;99.90
2729;DHT22;1372;47.956;7.830;2022-12-07T14:30:55;6.90;99.90
2729;DHT22;1372;47.956;7.830;2022-12-07T14:33:24;6.90;99.90
2729;DHT22;1372;47.956;7.830;2022-12-07T14:35:56;6.90;99.90
2729;DHT22;1372;47.956;7.830;2022-12-07T14:38:26;6.90;99.90
2729;DHT22;1372;47.956;7.830;2022-12-07T14:40:56;6.70;99.90
2729;DHT22;1372;47.956;7.830;2022-12-07T14:43:46;6.70;99.90
2729;DHT22;1372;47.956;7.830;2022-12-07T14:46:35;6.80;99.90
2729;DHT22;1372;47.956;7.830;2022-12-07T14:49:04;6.70;99.90
2729;DHT22;1372;47.956;7.830;2022-12-07T14:51:53;6.60;99.90
2729;DHT22;1372;47.956;7.830;2022-12-07T14:54:42;6.50;99.90
2729;DHT22;1372;47.956;7.830;2022-12-07T14:57:23;6.40;99.90
2729;DHT22;1372;47.956;7.830;2022-12-07T14:59:51;6.30;99.90
2729;DHT22;1372;47.956;7.830;2022-12-07T15:02:20;6.30;99.90
2729;DHT22;1372;47.956;7.830;2022-12-07T15:04:55;6.30;99.90
2729;DHT22;1372;47.956;7.830;2022-12-07T15:08:14;6.10;99.90
2729;DHT22;1372;47.956;7.830;2022-12-07T15:10:44;6.10;99.90
2729;DHT22;1372;47.956;7.830;2022-12-07T15:13:22;6.00;99.90
2729;DHT22;1372;47.956;7.830;2022-12-07T15:16:20;5.90;99.90
2729;DHT22;1372;47.956;7.830;2022-12-07T15:19:20;5.90;99.90
2729;DHT22;1372;47.956;7.830;2022-12-07T15:21:57;5.80;99.90
2729;DHT22;1372;47.956;7.830;2022-12-07T15:24:29;5.90;99.90
2729;DHT22;1372;47.956;7.830;2022-12-07T15:26:58;5.80;99.90
2729;DHT22;1372;47.956;7.830;2022-12-07T15:29:29;5.80;99.90
2729;DHT22;1372;47.956;7.830;2022-12-07T15:31:59;5.80;99.90
2729;DHT22;1372;47.956;7.830;2022-12-07T15:34:28;5.70;99.90
2729;DHT22;1372;47.956;7.830;2022-12-07T15:37:08;5.70;99.90
2729;DHT22;1372;47.956;7.830;2022-12-07T15:39:37;5.60;99.90
2729;DHT22;1372;47.956;7.830;2022-12-07T15:42:05;5.50;99.90
2729;DHT22;1372;47.956;7.830;2022-12-07T15:44:35;5.50;99.90
2729;DHT22;1372;47.956;7.830;2022-12-07T15:47:21;5.20;99.90
2729;DHT22;1372;47.956;7.830;2022-12-07T15:49:50;5.10;99.90
2729;DHT22;1372;47.956;7.830;2022-12-07T15:52:21;5.10;99.90
2729;DHT22;1372;47.956;7.830;2022-12-07T15:54:51;5.00;99.90
2729;DHT22;1372;47.956;7.830;2022-12-07T15:58:08;4.90;99.90
2729;DHT22;1372;47.956;7.830;2022-12-07T16:01:40;4.80;99.90
2729;DHT22;1372;47.956;7.830;2022-12-07T16:04:50;4.80;99.90
2729;DHT22;1372;47.956;7.830;2022-12-07T16:07:46;4.70;99.90
2729;DHT22;1372;47.956;7.830;2022-12-07T16:10:16;4.50;99.90
2729;DHT22;1372;47.956;7.830;2022-12-07T16:12:47;4.30;99.90
2729;DHT22;1372;47.956;7.830;2022-12-07T16:15:16;4.10;99.90
2729;DHT22;1372;47.956;7.830;2022-12-07T16:17:51;4.10;99.90
2729;DHT22;1372;47.956;7.830;2022-12-07T16:20:23;3.90;99.90
2729;DHT22;1372;47.956;7.830;2022-12-07T16:22:52;3.80;99.90
2729;DHT22;1372;47.956;7.830;2022-12-07T16:25:29;3.70;99.90
2729;DHT22;1372;47.956;7.830;2022-12-07T16:28:04;3.60;99.90
2729;DHT22;1372;47.956;7.830;2022-12-07T16:34:11;3.60;99.90
2729;DHT22;1372;47.956;7.830;2022-12-07T16:36:42;3.30;99.90
2729;DHT22;1372;47.956;7.830;2022-12-07T16:39:34;3.20;99.90
2729;DHT22;1372;47.956;7.830;2022-12-07T16:42:03;3.20;99.90
2729;DHT22;1372;47.956;7.830;2022-12-07T16:44:54;3.10;99.90
2729;DHT22;1372;47.956;7.830;2022-12-07T16:47:37;3.00;99.90
2729;DHT22;1372;47.956;7.830;2022-12-07T16:50:09;2.80;99.90
2729;DHT22;1372;47.956;7.830;2022-12-07T16:52:40;2.60;99.90
2729;DHT22;1372;47.956;7.830;2022-12-07T16:55:09;2.70;99.90
2729;DHT22;1372;47.956;7.830;2022-12-07T16:57:37;2.70;99.90
2729;DHT22;1372;47.956;7.830;2022-12-07T17:00:14;2.60;99.90
2729;DHT22;1372;47.956;7.830;2022-12-07T17:02:43;2.50;99.90
2729;DHT22;1372;47.956;7.830;2022-12-07T17:05:18;2.40;99.90
2729;DHT22;1372;47.956;7.830;2022-12-07T17:07:49;2.30;99.90
2729;DHT22;1372;47.956;7.830;2022-12-07T17:10:18;2.30;99.90
2729;DHT22;1372;47.956;7.830;2022-12-07T17:12:46;2.20;99.90
2729;DHT22;1372;47.956;7.830;2022-12-07T17:15:17;2.10;99.90
2729;DHT22;1372;47.956;7.830;2022-12-07T17:17:45;2.00;99.90
2729;DHT22;1372;47.956;7.830;2022-12-07T17:20:16;2.00;99.90
2729;DHT22;1372;47.956;7.830;2022-12-07T17:22:46;2.00;99.90
2729;DHT22;1372;47.956;7.830;2022-12-07T17:25:16;2.00;99.90
2729;DHT22;1372;47.956;7.830;2022-12-07T17:27:46;1.90;99.90
2729;DHT22;1372;47.956;7.830;2022-12-07T17:30:15;1.80;99.90